Time;durP1;ratioP1;P1;durP2;ratioP2;P2;SDS_P1;SDS_P2;PMS_P1;PMS_P2;Temp;Humidity;BMP_temperature;BMP_pressure;BME280_temperature;BME280_humidity;BME280_pressure;Samples;Min_cycle;Max_cycle;Signal;HPM_P1;HPM_P2
2020/12/15 00:00:18;;;;;;;66.45;11.43;;;4.00;99.90;;;;;;5032209;28;20202;-69
2020/12/15 00:02:44;;;;;;;67.50;12.68;;;4.00;99.90;;;;;;5031956;28;20285;-69
2020/12/15 00:05:10;;;;;;;68.60;13.05;;;4.00;99.90;;;;;;5031737;28;20697;-69
2020/12/15 00:07:37;;;;;;;66.40;11.98;;;4.00;99.90;;;;;;5031774;28;20229;-69
2020/12/15 00:10:05;;;;;;;67.88;11.43;;;4.00;99.90;;;;;;5031730;28;20210;-69
2020/12/15 00:12:31;;;;;;;68.75;12.02;;;4.00;99.90;;;;;;5031519;28;20712;-69
2020/12/15 00:14:57;;;;;;;67.35;11.32;;;4.00;99.90;;;;;;5032174;28;20221;-69
2020/12/15 00:17:24;;;;;;;66.90;11.85;;;4.00;99.90;;;;;;5031820;28;20653;-70
2020/12/15 00:19:50;;;;;;;64.50;11.13;;;4.10;99.90;;;;;;5031878;28;20203;-69
2020/12/15 00:22:17;;;;;;;65.95;10.50;;;4.10;99.90;;;;;;5031168;28;20206;-69
2020/12/15 00:24:45;;;;;;;67.18;10.48;;;4.00;99.90;;;;;;5031683;28;20213;-69
2020/12/15 00:27:12;;;;;;;63.53;11.18;;;4.00;99.90;;;;;;5031635;28;20331;-68
2020/12/15 00:29:38;;;;;;;64.20;11.10;;;4.00;99.90;;;;;;5031773;28;20213;-69
2020/12/15 00:32:05;;;;;;;64.60;9.65;;;4.00;99.90;;;;;;5031127;28;20787;-69
2020/12/15 00:34:31;;;;;;;67.45;10.80;;;3.90;99.90;;;;;;5031668;28;20580;-69
2020/12/15 00:36:58;;;;;;;67.80;11.80;;;4.00;99.90;;;;;;5031250;28;20230;-69
2020/12/15 00:39:24;;;;;;;66.20;10.82;;;3.90;99.90;;;;;;5031520;28;20202;-69
2020/12/15 00:41:50;;;;;;;64.32;9.90;;;3.90;99.90;;;;;;5031438;28;20199;-69
2020/12/15 00:44:18;;;;;;;65.45;9.73;;;3.90;99.90;;;;;;5031057;28;20237;-69
2020/12/15 00:46:48;;;;;;;70.13;11.10;;;3.90;99.90;;;;;;5031374;28;20265;-69
2020/12/15 00:49:15;;;;;;;67.25;10.80;;;3.90;99.90;;;;;;5031259;28;20218;-69
2020/12/15 00:51:41;;;;;;;66.00;10.77;;;3.90;99.90;;;;;;5031244;28;20218;-69
2020/12/15 00:54:07;;;;;;;67.20;10.90;;;3.90;99.90;;;;;;5031122;28;20217;-69
2020/12/15 00:56:34;;;;;;;65.15;11.10;;;3.90;99.90;;;;;;5031461;28;20317;-69
2020/12/15 00:59:00;;;;;;;67.47;10.82;;;4.00;99.90;;;;;;5031146;28;20289;-69
2020/12/15 01:01:27;;;;;;;67.70;10.50;;;4.00;99.90;;;;;;5031310;28;20250;-69
2020/12/15 01:03:54;;;;;;;64.82;9.80;;;4.00;99.90;;;;;;5030840;28;20245;-69
2020/12/15 01:06:20;;;;;;;65.32;10.20;;;4.00;99.90;;;;;;5031601;28;20230;-69
2020/12/15 01:08:46;;;;;;;65.05;10.35;;;4.00;99.90;;;;;;5035264;28;20206;-69
2020/12/15 01:11:13;;;;;;;63.30;10.00;;;4.00;99.90;;;;;;5035036;28;20673;-68
2020/12/15 01:13:39;;;;;;;64.63;10.57;;;4.10;99.90;;;;;;5035097;28;20213;-69
2020/12/15 01:16:05;;;;;;;62.25;9.23;;;4.10;99.90;;;;;;5035002;28;20230;-69
2020/12/15 01:18:34;;;;;;;65.80;9.85;;;4.10;99.90;;;;;;5034984;28;20202;-69
2020/12/15 01:21:01;;;;;;;65.50;10.18;;;4.10;99.90;;;;;;5034963;28;20216;-69
2020/12/15 01:23:28;;;;;;;64.97;10.65;;;4.10;99.90;;;;;;5034871;28;20256;-69
2020/12/15 01:25:55;;;;;;;64.53;10.23;;;4.20;99.90;;;;;;5035249;28;20237;-69
2020/12/15 01:28:21;;;;;;;65.75;10.30;;;4.20;99.90;;;;;;5034996;28;20313;-69
2020/12/15 01:30:47;;;;;;;70.18;9.60;;;4.20;99.90;;;;;;5035067;28;20703;-69
2020/12/15 01:33:14;;;;;;;64.03;9.75;;;4.20;99.90;;;;;;5034765;28;20226;-69
2020/12/15 01:35:41;;;;;;;63.88;10.40;;;4.20;99.90;;;;;;5034728;28;20279;-69
2020/12/15 01:38:07;;;;;;;68.57;10.43;;;4.30;99.90;;;;;;5034797;28;20207;-69
2020/12/15 01:40:34;;;;;;;61.13;8.70;;;4.30;99.90;;;;;;5034648;28;20209;-69
2020/12/15 01:43:00;;;;;;;63.63;9.20;;;4.30;99.90;;;;;;5034514;28;20202;-69
2020/12/15 01:45:26;;;;;;;64.28;9.40;;;4.30;99.90;;;;;;5034454;28;20670;-69
2020/12/15 01:47:53;;;;;;;63.85;9.48;;;4.30;99.90;;;;;;5034650;28;20321;-69
2020/12/15 01:50:20;;;;;;;63.78;8.75;;;4.40;99.90;;;;;;5034661;28;20601;-69
2020/12/15 01:52:48;;;;;;;63.25;9.32;;;4.40;99.90;;;;;;5034241;28;20233;-69
2020/12/15 01:55:17;;;;;;;63.97;8.73;;;4.40;99.90;;;;;;5034261;28;20232;-69
2020/12/15 01:57:44;;;;;;;63.70;9.07;;;4.40;99.90;;;;;;5034530;28;20565;-69
2020/12/15 02:00:11;;;;;;;66.13;10.48;;;4.40;99.90;;;;;;5034091;28;20229;-69
2020/12/15 02:02:40;;;;;;;62.45;8.82;;;4.40;99.90;;;;;;5034078;28;20666;-69
2020/12/15 02:05:06;;;;;;;62.95;9.02;;;4.50;99.90;;;;;;5034195;28;20213;-69
2020/12/15 02:07:33;;;;;;;63.35;9.25;;;4.40;99.90;;;;;;5034364;28;20212;-69
2020/12/15 02:10:00;;;;;;;63.47;8.38;;;4.50;99.90;;;;;;5034273;28;20202;-69
2020/12/15 02:12:27;;;;;;;63.13;9.10;;;4.50;99.90;;;;;;5033754;28;20307;-69
2020/12/15 02:14:53;;;;;;;63.35;9.35;;;4.50;99.90;;;;;;5033952;28;20641;-69
2020/12/15 02:17:20;;;;;;;63.63;8.98;;;4.50;99.90;;;;;;5033310;28;20733;-69
2020/12/15 02:19:46;;;;;;;63.35;9.02;;;4.50;99.90;;;;;;5034044;28;20301;-69
2020/12/15 02:22:14;;;;;;;61.60;8.20;;;4.50;99.90;;;;;;5033519;28;20293;-69
2020/12/15 02:24:40;;;;;;;62.88;8.85;;;4.50;99.90;;;;;;5033888;28;20253;-69
2020/12/15 02:27:06;;;;;;;61.63;8.30;;;4.50;99.90;;;;;;5033712;28;20287;-69
2020/12/15 02:29:33;;;;;;;64.28;9.82;;;4.60;99.90;;;;;;5030269;28;20206;-69
2020/12/15 02:31:59;;;;;;;62.80;8.65;;;4.60;99.90;;;;;;5033712;28;20225;-69
2020/12/15 02:34:25;;;;;;;63.30;8.70;;;4.60;99.90;;;;;;5033395;28;20225;-69
2020/12/15 02:36:52;;;;;;;63.25;8.80;;;4.60;99.90;;;;;;5033307;28;20705;-69
2020/12/15 02:39:20;;;;;;;64.63;9.18;;;4.60;99.90;;;;;;5033274;28;20210;-69
2020/12/15 02:41:53;;;;;;;68.05;10.55;;;4.60;99.90;;;;;;5033495;28;20558;-69
2020/12/15 02:44:21;;;;;;;63.28;8.63;;;4.60;99.90;;;;;;5033086;28;20213;-69
2020/12/15 02:46:47;;;;;;;63.83;9.55;;;4.60;99.90;;;;;;5033199;28;20234;-69
2020/12/15 02:49:14;;;;;;;62.05;8.10;;;4.60;99.90;;;;;;5033364;28;20628;-69
2020/12/15 02:51:40;;;;;;;62.65;8.65;;;4.70;99.90;;;;;;5032632;28;20226;-69
2020/12/15 02:54:06;;;;;;;63.60;8.63;;;4.70;99.90;;;;;;5033005;28;20218;-68
2020/12/15 02:56:34;;;;;;;62.72;8.75;;;4.60;99.90;;;;;;5033482;28;20233;-69
2020/12/15 02:59:00;;;;;;;64.22;8.32;;;4.70;99.90;;;;;;5033227;28;20632;-69
2020/12/15 03:01:26;;;;;;;63.60;9.43;;;4.70;99.90;;;;;;5033229;28;20230;-68
2020/12/15 03:03:52;;;;;;;61.50;7.88;;;4.70;99.90;;;;;;5032865;28;20206;-69
2020/12/15 03:06:19;;;;;;;62.58;8.32;;;4.70;99.90;;;;;;5032392;28;20303;-69
2020/12/15 03:08:45;;;;;;;62.20;8.65;;;4.70;99.90;;;;;;5032584;28;20218;-68
2020/12/15 03:11:11;;;;;;;63.67;8.52;;;4.70;99.90;;;;;;5033171;28;20214;-68
2020/12/15 03:13:38;;;;;;;60.90;7.78;;;4.70;99.90;;;;;;5032712;28;20701;-68
2020/12/15 03:16:05;;;;;;;60.75;7.78;;;4.70;99.90;;;;;;5032837;28;20230;-68
2020/12/15 03:18:31;;;;;;;63.60;8.50;;;4.70;99.90;;;;;;5032945;28;20206;-69
2020/12/15 03:21:01;;;;;;;62.05;8.30;;;4.70;99.90;;;;;;5032346;28;20213;-69
2020/12/15 03:23:27;;;;;;;63.25;8.68;;;4.70;99.90;;;;;;5032496;28;20620;-68
2020/12/15 03:25:54;;;;;;;63.03;8.93;;;4.70;99.90;;;;;;5032611;28;20233;-68
2020/12/15 03:28:21;;;;;;;63.20;8.40;;;4.70;99.90;;;;;;5032702;28;20212;-69
2020/12/15 03:30:49;;;;;;;63.50;8.45;;;4.70;99.90;;;;;;5031915;28;20206;-69
2020/12/15 03:33:15;;;;;;;61.67;8.23;;;4.70;99.90;;;;;;5032103;28;20226;-68
2020/12/15 03:35:42;;;;;;;61.97;8.27;;;4.70;99.90;;;;;;5032131;28;20241;-68
2020/12/15 03:38:08;;;;;;;63.28;8.93;;;4.70;99.90;;;;;;5032244;28;20296;-68
2020/12/15 03:40:35;;;;;;;62.63;7.72;;;4.70;99.90;;;;;;5032516;28;20206;-69
2020/12/15 03:43:01;;;;;;;62.20;7.72;;;4.70;99.90;;;;;;5032023;28;20228;-69
2020/12/15 03:45:29;;;;;;;63.75;7.95;;;4.70;99.90;;;;;;5032084;28;20292;-68
2020/12/15 03:47:57;;;;;;;60.35;7.70;;;4.80;99.90;;;;;;5073650;22;20229;-74
2020/12/15 03:50:23;;;;;;;61.63;8.45;;;4.80;99.90;;;;;;5051595;28;20316;-74
2020/12/15 03:52:49;;;;;;;64.35;8.55;;;4.80;99.90;;;;;;5051905;28;20252;-75
2020/12/15 03:55:21;;;;;;;62.30;7.65;;;4.80;99.90;;;;;;5051872;28;20210;-74
2020/12/15 03:57:48;;;;;;;62.25;8.23;;;4.80;99.90;;;;;;5052012;28;20244;-74
2020/12/15 04:00:15;;;;;;;61.72;7.72;;;4.90;99.90;;;;;;5051766;28;20232;-74
2020/12/15 04:02:41;;;;;;;62.45;7.32;;;4.90;99.90;;;;;;5050756;28;20206;-74
2020/12/15 04:05:08;;;;;;;64.60;8.00;;;4.90;99.90;;;;;;5051658;28;20209;-74
2020/12/15 04:07:35;;;;;;;62.85;8.05;;;4.90;99.90;;;;;;5051268;28;20229;-74
2020/12/15 04:10:01;;;;;;;61.35;7.38;;;4.90;99.90;;;;;;5051958;28;20676;-74
2020/12/15 04:12:27;;;;;;;64.65;8.70;;;4.90;99.90;;;;;;5051535;28;20607;-74
2020/12/15 04:14:53;;;;;;;63.28;8.45;;;4.90;99.90;;;;;;5051855;28;20206;-74
2020/12/15 04:17:20;;;;;;;61.45;8.35;;;4.90;99.90;;;;;;5051259;28;20225;-74
2020/12/15 04:19:46;;;;;;;63.15;7.65;;;4.90;99.90;;;;;;5051948;28;20676;-74
2020/12/15 04:22:13;;;;;;;60.85;7.00;;;5.00;99.90;;;;;;5050922;28;20201;-74
2020/12/15 04:24:40;;;;;;;62.35;7.55;;;5.00;99.90;;;;;;5051441;28;20340;-74
2020/12/15 04:27:06;;;;;;;60.63;7.30;;;5.00;99.90;;;;;;5051606;28;20251;-74
2020/12/15 04:29:32;;;;;;;61.05;6.75;;;5.00;99.90;;;;;;5053027;28;20205;-74
2020/12/15 04:31:58;;;;;;;62.75;7.35;;;5.00;99.90;;;;;;5054959;28;20218;-74
2020/12/15 04:34:25;;;;;;;61.78;7.70;;;5.00;99.90;;;;;;5051651;28;20205;-74
2020/12/15 04:36:51;;;;;;;62.40;8.88;;;5.00;99.90;;;;;;5051257;28;20232;-74
2020/12/15 04:39:19;;;;;;;61.60;8.05;;;5.00;99.90;;;;;;5051340;28;20201;-74
2020/12/15 04:41:45;;;;;;;63.35;8.85;;;5.00;99.90;;;;;;5051114;28;20313;-74
2020/12/15 04:44:11;;;;;;;70.97;12.90;;;5.00;99.90;;;;;;5050362;28;20587;-74
2020/12/15 04:46:47;;;;;;;65.20;10.45;;;5.00;99.90;;;;;;5050852;28;20237;-74
2020/12/15 04:49:20;;;;;;;68.70;9.50;;;5.00;99.90;;;;;;5051164;28;20205;-74
2020/12/15 04:52:03;;;;;;;65.68;11.38;;;5.00;99.90;;;;;;5050810;28;20226;-74
2020/12/15 04:54:33;;;;;;;64.95;10.23;;;5.00;99.90;;;;;;5050743;28;20210;-74
2020/12/15 04:57:01;;;;;;;63.90;9.30;;;5.10;99.90;;;;;;5050915;28;20287;-74
2020/12/15 04:59:32;;;;;;;64.00;10.10;;;5.10;99.90;;;;;;5051135;28;20217;-74
2020/12/15 05:01:59;;;;;;;64.55;9.82;;;5.10;99.90;;;;;;5051343;28;20236;-74
2020/12/15 05:04:26;;;;;;;64.28;10.05;;;5.10;99.90;;;;;;5050946;28;20209;-74
2020/12/15 05:06:54;;;;;;;65.38;9.80;;;5.10;99.90;;;;;;5050812;28;20241;-74
2020/12/15 05:09:29;;;;;;;61.70;8.80;;;5.10;99.90;;;;;;5050995;28;20202;-74
2020/12/15 05:11:56;;;;;;;61.45;7.70;;;5.10;99.90;;;;;;5050990;28;20236;-74
2020/12/15 05:14:23;;;;;;;61.72;7.65;;;5.10;99.90;;;;;;5051029;28;20280;-74
2020/12/15 05:16:50;;;;;;;63.25;8.27;;;5.10;99.90;;;;;;5050883;28;20869;-74
2020/12/15 05:19:16;;;;;;;61.70;7.93;;;5.10;99.90;;;;;;5051118;28;20216;-74
2020/12/15 05:21:52;;;;;;;63.03;7.97;;;5.10;99.90;;;;;;5050894;28;20258;-74
2020/12/15 05:24:22;;;;;;;61.72;7.90;;;5.10;99.90;;;;;;5050133;28;20209;-74
2020/12/15 05:26:48;;;;;;;63.53;7.32;;;5.10;99.90;;;;;;5050107;28;20228;-74
2020/12/15 05:29:17;;;;;;;60.25;7.38;;;5.10;99.90;;;;;;5050586;28;20205;-74
2020/12/15 05:31:44;;;;;;;62.05;7.82;;;5.10;99.90;;;;;;5050242;28;20259;-74
2020/12/15 05:34:13;;;;;;;61.15;7.25;;;5.10;99.90;;;;;;5050468;28;20576;-74
2020/12/15 05:36:50;;;;;;;62.35;6.97;;;5.10;99.90;;;;;;5050421;28;20302;-74
2020/12/15 05:39:17;;;;;;;61.65;7.95;;;5.10;99.90;;;;;;5051054;28;20421;-74
2020/12/15 05:41:43;;;;;;;62.15;7.80;;;5.10;99.90;;;;;;5050551;28;20248;-74
2020/12/15 05:44:12;;;;;;;61.03;7.75;;;5.10;99.90;;;;;;5050075;28;20241;-74
2020/12/15 05:46:47;;;;;;;62.00;7.60;;;5.10;99.90;;;;;;5050549;28;20233;-74
2020/12/15 05:49:14;;;;;;;60.60;7.30;;;5.10;99.90;;;;;;5050811;28;20209;-74
2020/12/15 05:51:44;;;;;;;61.92;8.15;;;5.10;99.90;;;;;;5050485;28;20473;-74
2020/12/15 05:54:12;;;;;;;63.42;8.77;;;5.10;99.90;;;;;;5053461;28;20220;-74
2020/12/15 05:56:39;;;;;;;62.90;8.55;;;5.10;99.90;;;;;;5053839;28;20245;-74
2020/12/15 05:59:19;;;;;;;61.33;7.82;;;5.10;99.90;;;;;;5053890;28;20210;-74
2020/12/15 06:01:48;;;;;;;60.40;7.22;;;5.10;99.90;;;;;;5054657;28;20287;-74
2020/12/15 06:04:14;;;;;;;61.25;7.63;;;5.20;99.90;;;;;;5054140;28;20301;-74
2020/12/15 06:06:42;;;;;;;61.33;7.85;;;5.20;99.90;;;;;;5053789;28;20229;-74
2020/12/15 06:09:10;;;;;;;61.28;7.90;;;5.20;99.90;;;;;;5054236;28;20676;-74
2020/12/15 06:11:39;;;;;;;65.35;7.60;;;5.20;99.90;;;;;;5054031;28;20212;-74
2020/12/15 06:14:06;;;;;;;65.60;7.70;;;5.20;99.90;;;;;;5053718;28;20218;-74
2020/12/15 06:16:32;;;;;;;62.50;7.90;;;5.20;99.90;;;;;;5054081;28;20222;-74
2020/12/15 06:19:00;;;;;;;61.97;8.07;;;5.20;99.90;;;;;;5053937;28;20334;-74
2020/12/15 06:21:28;;;;;;;62.13;8.18;;;5.30;99.90;;;;;;5053449;28;20237;-74
2020/12/15 06:24:01;;;;;;;60.63;6.68;;;5.30;99.90;;;;;;5053650;28;20208;-74
2020/12/15 06:26:30;;;;;;;61.78;7.80;;;5.30;99.90;;;;;;5052948;28;20225;-74
2020/12/15 06:29:00;;;;;;;63.67;8.10;;;5.30;99.90;;;;;;5057113;28;20206;-74
2020/12/15 06:31:27;;;;;;;59.90;6.78;;;5.30;99.90;;;;;;5054875;28;20399;-74
2020/12/15 06:34:02;;;;;;;62.13;7.50;;;5.30;99.90;;;;;;5053099;28;20225;-74
2020/12/15 06:36:30;;;;;;;61.38;7.78;;;5.30;99.90;;;;;;5052604;28;20311;-74
2020/12/15 06:38:58;;;;;;;61.75;7.55;;;5.30;99.90;;;;;;5053190;28;20630;-74
2020/12/15 06:41:25;;;;;;;60.65;6.75;;;5.30;99.90;;;;;;5053727;28;20631;-74
2020/12/15 06:43:52;;;;;;;63.13;8.02;;;5.40;99.90;;;;;;5053032;28;20197;-74
2020/12/15 06:46:28;;;;;;;61.33;7.68;;;5.40;99.90;;;;;;5053142;28;20229;-74
2020/12/15 06:48:55;;;;;;;60.20;6.70;;;5.40;99.90;;;;;;5052354;28;20207;-74
2020/12/15 06:51:30;;;;;;;60.28;7.25;;;5.40;99.90;;;;;;5052273;28;20296;-74
2020/12/15 06:54:04;;;;;;;62.25;8.63;;;5.40;99.90;;;;;;5052514;28;20770;-74
2020/12/15 06:56:30;;;;;;;61.40;7.53;;;5.40;99.90;;;;;;5053183;28;20242;-74
2020/12/15 06:59:01;;;;;;;60.92;6.95;;;5.40;99.90;;;;;;5053384;28;20219;-74
2020/12/15 07:01:29;;;;;;;61.75;7.65;;;5.50;99.90;;;;;;5053104;28;20305;-74
2020/12/15 07:03:57;;;;;;;60.30;6.40;;;5.50;99.90;;;;;;5052514;28;20213;-74
2020/12/15 07:06:24;;;;;;;62.92;7.63;;;5.50;99.90;;;;;;5053300;28;20230;-74
2020/12/15 07:09:09;;;;;;;62.95;8.10;;;5.50;99.90;;;;;;5053288;28;20206;-74
2020/12/15 07:11:36;;;;;;;63.65;7.90;;;5.50;99.90;;;;;;5052912;28;20210;-73
2020/12/15 07:14:04;;;;;;;60.67;6.50;;;5.50;99.90;;;;;;5052528;28;20221;-74
2020/12/15 07:16:32;;;;;;;60.78;7.20;;;5.50;99.90;;;;;;5052600;28;20322;-74
2020/12/15 07:18:59;;;;;;;60.03;6.95;;;5.50;99.90;;;;;;5053071;28;20304;-74
2020/12/15 07:21:31;;;;;;;65.60;8.65;;;5.50;99.90;;;;;;5052752;28;20205;-73
2020/12/15 07:24:00;;;;;;;62.53;8.00;;;5.50;99.90;;;;;;5052334;28;20247;-74
2020/12/15 07:26:27;;;;;;;61.95;7.53;;;5.50;99.90;;;;;;5052782;28;20650;-74
2020/12/15 07:28:54;;;;;;;61.42;7.35;;;5.50;99.90;;;;;;5052774;28;20670;-74
2020/12/15 07:31:27;;;;;;;59.38;6.60;;;5.50;99.90;;;;;;5052870;28;20629;-74
2020/12/15 07:34:07;;;;;;;60.75;7.03;;;5.50;99.90;;;;;;5052243;28;20661;-74
2020/12/15 07:36:36;;;;;;;61.70;7.57;;;5.50;99.90;;;;;;5052527;28;20303;-72
2020/12/15 07:39:04;;;;;;;59.90;5.65;;;5.60;99.90;;;;;;5052923;28;20209;-72
2020/12/15 07:41:36;;;;;;;60.55;6.82;;;5.60;99.90;;;;;;5052302;28;20210;-72
2020/12/15 07:44:05;;;;;;;59.35;6.00;;;5.60;99.90;;;;;;5052203;28;20615;-73
2020/12/15 07:46:31;;;;;;;60.72;6.60;;;5.70;99.90;;;;;;5052286;28;20234;-74
2020/12/15 07:48:58;;;;;;;59.75;6.05;;;5.70;99.90;;;;;;5052310;28;20218;-74
2020/12/15 07:51:25;;;;;;;61.45;6.55;;;5.70;99.90;;;;;;5052383;28;20212;-74
2020/12/15 07:53:53;;;;;;;61.03;7.18;;;5.80;99.90;;;;;;5051718;28;20316;-74
2020/12/15 07:56:20;;;;;;;59.22;6.00;;;5.80;99.90;;;;;;5052210;28;20728;-74
2020/12/15 07:58:50;;;;;;;61.65;6.10;;;5.80;99.90;;;;;;5052194;28;20304;-74
2020/12/15 08:01:24;;;;;;;64.30;7.20;;;5.90;99.90;;;;;;5052101;28;20207;-73
2020/12/15 08:04:04;;;;;;;60.67;6.10;;;5.90;99.90;;;;;;5051775;28;20731;-74
2020/12/15 08:06:32;;;;;;;60.28;6.93;;;5.90;99.90;;;;;;5052200;28;20235;-74
2020/12/15 08:08:59;;;;;;;60.80;6.75;;;6.00;99.90;;;;;;5052113;28;20217;-74
2020/12/15 08:11:26;;;;;;;63.72;7.68;;;6.00;99.90;;;;;;5052041;28;20239;-74
2020/12/15 08:13:54;;;;;;;62.05;6.95;;;6.10;99.90;;;;;;5051601;28;20583;-73
2020/12/15 08:16:20;;;;;;;62.00;6.93;;;6.10;99.90;;;;;;5051272;28;20229;-74
2020/12/15 08:18:47;;;;;;;62.88;6.93;;;6.10;99.90;;;;;;5051503;28;20205;-74
2020/12/15 08:21:15;;;;;;;60.47;6.82;;;6.20;99.90;;;;;;5051602;28;20565;-74
2020/12/15 08:23:48;;;;;;;60.67;6.85;;;6.20;99.90;;;;;;5051323;28;20208;-74
2020/12/15 08:26:17;;;;;;;62.10;7.65;;;6.20;99.90;;;;;;5053091;28;20230;-73
2020/12/15 08:28:44;;;;;;;61.25;7.45;;;6.30;99.90;;;;;;5056392;28;20202;-73
2020/12/15 08:31:12;;;;;;;60.85;7.10;;;6.30;99.90;;;;;;5052023;28;20209;-73
2020/12/15 08:33:39;;;;;;;60.92;6.95;;;6.40;99.90;;;;;;5050970;28;20229;-73
2020/12/15 08:36:09;;;;;;;61.85;6.90;;;6.40;99.90;;;;;;5051355;28;20747;-74
2020/12/15 08:38:41;;;;;;;64.03;7.30;;;6.40;99.90;;;;;;5051505;28;20203;-75
2020/12/15 08:41:13;;;;;;;61.17;7.47;;;6.40;99.90;;;;;;5051481;28;20535;-75
2020/12/15 08:43:39;;;;;;;62.22;7.93;;;6.40;99.90;;;;;;5051125;28;20205;-74
2020/12/15 08:46:15;;;;;;;62.83;7.22;;;6.40;99.90;;;;;;5050963;28;20253;-74
2020/12/15 08:48:42;;;;;;;63.17;7.72;;;6.40;99.90;;;;;;5051533;28;20228;-74
2020/12/15 08:51:12;;;;;;;62.88;7.30;;;6.40;99.90;;;;;;5051321;28;20639;-74
2020/12/15 08:53:39;;;;;;;64.13;7.75;;;6.40;99.90;;;;;;5051006;28;20226;-74
2020/12/15 08:56:13;;;;;;;61.63;7.47;;;6.40;99.90;;;;;;5051045;28;20233;-74
2020/12/15 08:58:40;;;;;;;61.95;6.93;;;6.50;99.90;;;;;;5051170;28;20211;-74
2020/12/15 09:01:06;;;;;;;62.38;7.60;;;6.50;99.90;;;;;;5051048;28;20206;-74
2020/12/15 09:03:42;;;;;;;60.80;7.38;;;6.50;99.90;;;;;;5051089;28;20207;-74
2020/12/15 09:06:09;;;;;;;65.35;7.70;;;6.50;99.90;;;;;;5051004;28;20276;-74
2020/12/15 09:08:46;;;;;;;63.17;7.15;;;6.60;99.90;;;;;;5051200;28;20218;-75
2020/12/15 09:11:14;;;;;;;62.10;8.40;;;6.60;99.90;;;;;;5050996;28;20214;-75
2020/12/15 09:13:50;;;;;;;62.80;7.60;;;6.60;99.90;;;;;;5051080;28;20236;-75
2020/12/15 09:16:24;;;;;;;63.40;7.50;;;6.60;99.90;;;;;;5050980;28;20474;-74
2020/12/15 09:18:52;;;;;;;64.10;7.32;;;6.60;99.90;;;;;;5051037;28;20568;-73
2020/12/15 09:21:18;;;;;;;62.53;7.57;;;6.60;99.90;;;;;;5051050;28;20269;-74
2020/12/15 09:23:48;;;;;;;61.75;7.40;;;6.60;99.90;;;;;;5050542;28;20202;-74
2020/12/15 09:26:14;;;;;;;61.63;7.72;;;6.70;99.90;;;;;;5051137;28;20229;-75
2020/12/15 09:28:40;;;;;;;63.10;6.60;;;6.70;99.90;;;;;;5053628;28;20206;-74
2020/12/15 09:31:07;;;;;;;64.90;7.32;;;6.70;99.90;;;;;;5053712;28;20209;-75
2020/12/15 09:33:33;;;;;;;61.53;7.35;;;6.80;99.90;;;;;;5050464;28;20304;-74
2020/12/15 09:36:00;;;;;;;64.80;7.38;;;6.80;99.90;;;;;;5050690;28;20739;-75
2020/12/15 09:38:27;;;;;;;62.08;8.10;;;6.80;99.90;;;;;;5051431;28;20272;-74
2020/12/15 09:40:53;;;;;;;63.65;8.00;;;6.80;99.90;;;;;;5051593;28;20205;-74
2020/12/15 09:43:19;;;;;;;61.63;7.70;;;6.80;99.90;;;;;;5051192;28;20604;-72
2020/12/15 09:45:46;;;;;;;64.93;7.70;;;6.90;99.90;;;;;;5051264;28;20207;-72
2020/12/15 09:48:12;;;;;;;63.78;7.85;;;6.90;99.90;;;;;;5051236;28;20539;-73
2020/12/15 09:50:38;;;;;;;62.47;8.23;;;6.90;99.90;;;;;;5051196;28;20242;-73
2020/12/15 09:53:05;;;;;;;62.85;6.97;;;7.00;99.90;;;;;;5051071;28;20227;-73
2020/12/15 09:55:32;;;;;;;61.75;7.05;;;7.00;99.90;;;;;;5051564;28;20237;-74
2020/12/15 09:57:58;;;;;;;60.80;6.40;;;7.10;99.90;;;;;;5051269;28;20289;-73
2020/12/15 10:00:24;;;;;;;66.30;7.20;;;7.10;99.90;;;;;;5051098;28;20207;-74
2020/12/15 10:02:51;;;;;;;62.10;7.83;;;7.20;99.90;;;;;;5050943;28;20805;-74
2020/12/15 10:05:17;;;;;;;61.17;7.90;;;7.30;99.90;;;;;;5050594;28;20453;-73
2020/12/15 10:07:43;;;;;;;61.70;8.07;;;7.30;99.90;;;;;;5076595;22;20509;-67
2020/12/15 10:10:14;;;;;;;62.47;7.73;;;7.40;99.90;;;;;;5053786;28;20818;-69
2020/12/15 10:12:41;;;;;;;62.00;7.70;;;7.50;99.90;;;;;;5054100;28;20528;-69
2020/12/15 10:15:07;;;;;;;63.33;8.25;;;7.50;99.90;;;;;;5053818;28;20447;-70
2020/12/15 10:17:33;;;;;;;63.53;7.77;;;7.50;99.90;;;;;;5054057;28;20247;-71
2020/12/15 10:20:00;;;;;;;61.30;6.97;;;7.50;99.90;;;;;;5053722;28;20478;-70
2020/12/15 10:22:26;;;;;;;61.13;6.88;;;7.50;99.90;;;;;;5054018;28;20485;-70
2020/12/15 10:24:53;;;;;;;62.23;7.53;;;7.60;99.90;;;;;;5053777;28;20210;-69
2020/12/15 10:27:20;;;;;;;60.93;6.50;;;7.60;99.90;;;;;;5054068;28;20456;-69
2020/12/15 10:29:46;;;;;;;59.67;6.40;;;7.60;99.80;;;;;;5053832;28;20468;-69
2020/12/15 10:32:12;;;;;;;61.07;6.53;;;7.60;99.90;;;;;;5053688;28;20617;-70
2020/12/15 10:34:39;;;;;;;61.63;6.97;;;7.60;99.70;;;;;;5053485;28;20510;-69
2020/12/15 10:37:05;;;;;;;62.33;6.97;;;7.60;99.30;;;;;;5054077;28;20257;-69
2020/12/15 10:39:32;;;;;;;65.17;7.50;;;7.60;99.60;;;;;;5053482;28;20511;-69
2020/12/15 10:41:58;;;;;;;64.80;8.57;;;7.70;99.10;;;;;;5053678;28;20467;-69
2020/12/15 10:44:25;;;;;;;61.28;7.10;;;7.70;99.20;;;;;;5053476;28;20260;-70
2020/12/15 10:46:52;;;;;;;64.78;8.55;;;7.80;99.20;;;;;;5053461;28;20204;-70
2020/12/15 10:49:18;;;;;;;60.58;6.50;;;7.90;98.40;;;;;;5053407;28;20250;-70
2020/12/15 10:51:48;;;;;;;62.10;7.13;;;8.00;98.10;;;;;;5053832;28;20214;-70
2020/12/15 10:54:15;;;;;;;60.37;7.07;;;8.10;97.50;;;;;;5053004;28;20232;-70
2020/12/15 10:56:42;;;;;;;61.20;6.13;;;8.20;97.40;;;;;;5053371;28;20453;-70
2020/12/15 10:59:09;;;;;;;60.30;7.03;;;8.20;96.20;;;;;;5053111;28;20473;-70
2020/12/15 11:01:36;;;;;;;69.73;7.90;;;8.30;95.40;;;;;;5053248;28;20454;-70
2020/12/15 11:04:02;;;;;;;63.23;7.33;;;8.30;94.00;;;;;;5052993;28;20523;-70
2020/12/15 11:06:31;;;;;;;61.47;7.30;;;8.40;93.50;;;;;;5053428;28;20990;-70
2020/12/15 11:08:58;;;;;;;62.17;7.97;;;8.40;93.10;;;;;;5052882;28;20492;-70
2020/12/15 11:11:25;;;;;;;62.57;7.00;;;8.40;93.00;;;;;;5053060;28;20951;-70
2020/12/15 11:13:51;;;;;;;61.70;7.43;;;8.50;93.50;;;;;;5052734;28;20474;-70
2020/12/15 11:16:21;;;;;;;61.27;7.17;;;8.60;93.40;;;;;;5053148;28;20520;-70
2020/12/15 11:18:49;;;;;;;61.37;7.03;;;8.60;92.50;;;;;;5052913;28;20473;-70
2020/12/15 11:21:16;;;;;;;62.80;8.03;;;8.60;92.60;;;;;;5052740;28;20449;-70
2020/12/15 11:23:42;;;;;;;64.43;6.53;;;8.60;92.90;;;;;;5052752;28;20443;-70
2020/12/15 11:26:09;;;;;;;59.40;6.93;;;8.60;93.40;;;;;;5052657;28;20789;-70
2020/12/15 11:28:35;;;;;;;63.40;7.60;;;8.70;93.30;;;;;;5052620;28;20470;-70
2020/12/15 11:31:02;;;;;;;61.07;7.07;;;8.70;93.40;;;;;;5052192;28;20456;-71
2020/12/15 11:33:28;;;;;;;63.20;7.77;;;8.70;93.70;;;;;;5052546;28;20490;-71
2020/12/15 11:35:55;;;;;;;62.47;8.27;;;8.70;94.70;;;;;;5052047;28;20457;-71
2020/12/15 11:38:22;;;;;;;61.97;8.13;;;8.70;95.50;;;;;;5052354;28;20986;-71
2020/12/15 11:40:48;;;;;;;64.20;6.87;;;8.80;95.80;;;;;;5052642;28;20534;-70
2020/12/15 11:43:14;;;;;;;66.67;7.53;;;8.80;96.00;;;;;;5051982;28;20453;-70
2020/12/15 11:45:41;;;;;;;61.13;7.20;;;8.80;96.00;;;;;;5052651;28;20829;-70
2020/12/15 11:48:07;;;;;;;60.80;6.90;;;8.70;96.30;;;;;;5052290;28;20471;-70
2020/12/15 11:50:33;;;;;;;61.53;6.67;;;8.60;96.70;;;;;;5051841;28;20454;-70
2020/12/15 11:53:01;;;;;;;64.10;7.10;;;8.60;96.80;;;;;;5052006;28;20489;-69
2020/12/15 11:55:28;;;;;;;64.60;8.50;;;8.60;97.90;;;;;;5051599;28;20486;-69
2020/12/15 11:57:54;;;;;;;62.87;8.13;;;8.60;99.40;;;;;;5052113;28;20470;-70
2020/12/15 12:00:21;;;;;;;63.27;7.13;;;8.60;99.50;;;;;;5052176;28;20498;-68
2020/12/15 12:02:47;;;;;;;62.40;7.67;;;8.60;98.90;;;;;;5052112;28;20495;-68
2020/12/15 12:05:17;;;;;;;62.77;8.50;;;8.60;98.70;;;;;;5051694;28;20447;-68
2020/12/15 12:07:44;;;;;;;62.43;7.30;;;8.60;99.30;;;;;;5051382;28;20474;-68
2020/12/15 12:10:11;;;;;;;63.20;8.60;;;8.60;99.10;;;;;;5051671;28;20468;-68
2020/12/15 12:12:38;;;;;;;61.53;7.37;;;8.60;98.70;;;;;;5051635;28;20478;-68
2020/12/15 12:15:05;;;;;;;62.50;7.63;;;8.60;98.90;;;;;;5051483;28;20452;-69
2020/12/15 12:17:31;;;;;;;63.07;7.83;;;8.70;99.00;;;;;;5051815;28;20490;-69
2020/12/15 12:19:57;;;;;;;64.40;9.30;;;8.70;99.00;;;;;;5051923;28;20446;-69
2020/12/15 12:22:24;;;;;;;65.07;7.80;;;8.70;99.00;;;;;;5051632;28;20476;-69
2020/12/15 12:24:50;;;;;;;64.30;7.30;;;8.80;98.20;;;;;;5051228;28;20454;-69
2020/12/15 12:27:18;;;;;;;62.27;8.07;;;8.90;98.00;;;;;;5051670;28;20466;-69
2020/12/15 12:29:44;;;;;;;61.80;8.13;;;8.90;97.90;;;;;;5051705;28;20462;-69
2020/12/15 12:32:10;;;;;;;63.40;7.87;;;8.90;98.10;;;;;;5051570;28;20933;-69
2020/12/15 12:34:36;;;;;;;62.93;7.90;;;8.90;98.20;;;;;;5051214;28;20486;-69
2020/12/15 12:37:03;;;;;;;61.03;7.63;;;8.90;98.10;;;;;;5051336;28;20447;-69
2020/12/15 12:39:32;;;;;;;61.73;7.40;;;8.90;98.80;;;;;;5051140;28;20616;-69
2020/12/15 12:41:59;;;;;;;60.80;7.57;;;8.90;98.90;;;;;;5051837;28;20488;-69
2020/12/15 12:44:26;;;;;;;67.50;8.53;;;8.80;98.90;;;;;;5051146;28;20868;-69
2020/12/15 12:46:52;;;;;;;63.93;8.40;;;8.80;99.30;;;;;;5051543;28;20472;-69